createdAt,value
2018-07-31T05:47:19.554Z,864
2018-07-31T05:47:39.715Z,868
2018-07-31T05:47:59.841Z,868
2018-07-31T05:48:19.973Z,868
2018-07-31T05:48:40.135Z,868
2018-07-31T05:49:00.296Z,868
2018-07-31T05:49:20.452Z,868
2018-07-31T05:49:40.638Z,868
2018-07-31T05:50:00.781Z,872
2018-07-31T05:50:20.959Z,872
2018-07-31T05:50:41.100Z,868
2018-07-31T05:51:01.270Z,872
2018-07-31T05:51:21.387Z,872
2018-07-31T05:51:41.532Z,876
2018-07-31T05:52:01.924Z,872
2018-07-31T05:52:22.059Z,876
2018-07-31T05:52:42.204Z,876
2018-07-31T05:53:02.360Z,876
2018-07-31T05:53:22.511Z,876
2018-07-31T05:53:42.659Z,880
2018-07-31T05:54:02.821Z,880
2018-07-31T05:54:22.976Z,880
2018-07-31T05:54:43.107Z,880
2018-07-31T05:55:03.265Z,880
2018-07-31T05:55:23.440Z,880
2018-07-31T05:55:43.601Z,880
2018-07-31T05:56:03.738Z,884
2018-07-31T05:56:23.898Z,884
2018-07-31T05:56:44.037Z,880
2018-07-31T05:57:04.182Z,884
2018-07-31T05:57:24.370Z,884
2018-07-31T05:57:44.466Z,884
2018-07-31T05:58:04.619Z,888
2018-07-31T05:58:24.789Z,884
2018-07-31T05:58:44.947Z,888
2018-07-31T05:59:05.147Z,892
2018-07-31T05:59:25.313Z,892
2018-07-31T05:59:45.442Z,892
2018-07-31T06:00:05.598Z,888
2018-07-31T06:00:25.771Z,892
2018-07-31T06:00:45.898Z,892
2018-07-31T06:01:06.056Z,892
2018-07-31T06:01:26.223Z,896
2018-07-31T06:01:46.380Z,892
2018-07-31T06:02:06.522Z,892
2018-07-31T06:02:26.629Z,896
2018-07-31T06:02:46.783Z,896
2018-07-31T06:03:06.945Z,900
2018-07-31T06:03:27.120Z,896
2018-07-31T06:03:47.264Z,896
2018-07-31T06:04:07.409Z,900
2018-07-31T06:04:27.566Z,900
2018-07-31T06:04:47.722Z,900
2018-07-31T06:05:07.869Z,900
2018-07-31T06:05:28.042Z,896
2018-07-31T06:05:48.203Z,900
2018-07-31T06:06:08.329Z,904
2018-07-31T06:06:28.485Z,900
2018-07-31T06:06:48.630Z,900
2018-07-31T06:07:08.795Z,900
2018-07-31T06:07:28.921Z,900
2018-07-31T06:07:49.069Z,900
2018-07-31T06:08:09.272Z,900
2018-07-31T06:08:29.397Z,900
2018-07-31T06:08:49.532Z,900
2018-07-31T06:09:09.685Z,904
2018-07-31T06:09:29.847Z,904
2018-07-31T06:09:50.008Z,900
2018-07-31T06:10:10.178Z,904
2018-07-31T06:10:30.322Z,904
2018-07-31T06:10:50.461Z,904
2018-07-31T06:11:10.618Z,904
2018-07-31T06:11:30.937Z,904
2018-07-31T06:11:51.093Z,904
2018-07-31T06:12:11.249Z,904
2018-07-31T06:12:31.392Z,908
2018-07-31T06:12:51.526Z,908
2018-07-31T06:13:11.712Z,912
2018-07-31T06:13:31.860Z,908
2018-07-31T06:13:52.024Z,912
2018-07-31T06:14:12.156Z,912
2018-07-31T06:14:32.307Z,908
2018-07-31T06:14:52.449Z,912
2018-07-31T06:15:12.649Z,912
2018-07-31T06:15:32.836Z,912
2018-07-31T06:15:52.966Z,916
2018-07-31T06:16:13.133Z,912
2018-07-31T06:16:33.312Z,916
2018-07-31T06:16:53.480Z,916
2018-07-31T06:17:13.620Z,912
2018-07-31T06:17:33.771Z,916
2018-07-31T06:17:53.938Z,912
2018-07-31T06:18:14.091Z,916
2018-07-31T06:18:34.255Z,916
2018-07-31T06:18:54.410Z,912
2018-07-31T06:19:14.584Z,916
2018-07-31T06:19:34.775Z,912
2018-07-31T06:19:54.949Z,916
2018-07-31T06:20:15.090Z,916
2018-07-31T06:20:35.238Z,916
2018-07-31T06:20:55.398Z,912
2018-07-31T06:21:15.554Z,916
2018-07-31T06:21:35.722Z,916
2018-07-31T06:21:55.855Z,916
2018-07-31T06:22:15.993Z,916
2018-07-31T06:22:36.151Z,916
2018-07-31T06:22:56.303Z,916
2018-07-31T06:23:16.469Z,920
2018-07-31T06:23:36.652Z,916
2018-07-31T06:23:56.812Z,920
2018-07-31T06:24:16.957Z,916
2018-07-31T06:24:37.092Z,920
2018-07-31T06:24:57.265Z,920
2018-07-31T06:25:17.433Z,920
2018-07-31T06:25:37.673Z,920
2018-07-31T06:25:57.990Z,920
2018-07-31T06:26:18.162Z,920
2018-07-31T06:26:38.318Z,920
2018-07-31T06:26:58.486Z,920
2018-07-31T06:27:18.642Z,924
2018-07-31T06:27:38.797Z,924
2018-07-31T06:27:58.961Z,924
2018-07-31T06:28:19.149Z,920
2018-07-31T06:28:39.341Z,920
2018-07-31T06:28:59.497Z,920
2018-07-31T06:29:19.655Z,920
2018-07-31T06:29:39.791Z,920
2018-07-31T06:29:59.959Z,920
2018-07-31T06:30:20.107Z,924
2018-07-31T06:30:40.270Z,920
2018-07-31T06:31:00.408Z,920
2018-07-31T06:31:20.591Z,924
2018-07-31T06:31:40.787Z,924
2018-07-31T06:32:00.974Z,924
2018-07-31T06:32:21.129Z,924
2018-07-31T06:32:41.291Z,924
2018-07-31T06:33:01.484Z,924
2018-07-31T06:33:21.637Z,924
2018-07-31T06:33:41.834Z,920
2018-07-31T06:34:01.999Z,924
2018-07-31T06:34:22.196Z,924
2018-07-31T06:34:42.309Z,920
2018-07-31T06:35:02.490Z,924
2018-07-31T06:35:22.650Z,924
2018-07-31T06:35:42.770Z,924
2018-07-31T06:36:02.952Z,928
2018-07-31T06:36:23.118Z,928
2018-07-31T06:36:43.299Z,928
2018-07-31T06:37:03.468Z,928
2018-07-31T06:37:23.616Z,928
2018-07-31T06:37:43.794Z,928
2018-07-31T06:38:03.958Z,932
2018-07-31T06:38:24.104Z,932
2018-07-31T06:38:44.249Z,932
2018-07-31T06:39:04.440Z,932
2018-07-31T06:39:24.654Z,932
2018-07-31T06:39:44.806Z,932
2018-07-31T06:40:04.997Z,932
2018-07-31T06:40:25.196Z,932
2018-07-31T06:40:45.312Z,932
2018-07-31T06:41:05.462Z,932
2018-07-31T06:41:25.616Z,936
2018-07-31T06:41:45.770Z,936
2018-07-31T06:42:05.926Z,936
2018-07-31T06:42:26.049Z,940
2018-07-31T06:42:46.209Z,940
2018-07-31T06:43:06.377Z,936
2018-07-31T06:43:26.566Z,940
2018-07-31T06:43:46.712Z,940
2018-07-31T06:44:06.852Z,940
2018-07-31T06:44:26.982Z,944
2018-07-31T06:44:47.119Z,944
2018-07-31T06:45:07.257Z,944
2018-07-31T06:45:27.498Z,944
2018-07-31T06:45:47.645Z,948
2018-07-31T06:46:07.822Z,952
2018-07-31T06:46:27.994Z,952
2018-07-31T06:46:48.169Z,952
2018-07-31T06:47:08.322Z,952
2018-07-31T06:47:28.506Z,956
2018-07-31T06:47:48.681Z,956
2018-07-31T06:48:08.788Z,956
2018-07-31T06:48:28.942Z,960
2018-07-31T06:48:49.117Z,960
2018-07-31T06:49:09.268Z,964
2018-07-31T06:49:29.550Z,964
2018-07-31T06:49:49.699Z,964
2018-07-31T06:50:09.857Z,964
2018-07-31T06:50:30.013Z,968
2018-07-31T06:50:50.167Z,968
2018-07-31T06:51:10.369Z,968
2018-07-31T06:51:30.533Z,968
2018-07-31T06:51:50.710Z,968
2018-07-31T06:52:10.896Z,968
2018-07-31T06:52:31.044Z,968
2018-07-31T06:52:51.188Z,968
2018-07-31T06:53:11.328Z,968
2018-07-31T06:53:31.481Z,968
2018-07-31T06:53:51.622Z,972
2018-07-31T06:54:11.806Z,972
2018-07-31T06:54:31.981Z,972
2018-07-31T06:54:52.128Z,972
2018-07-31T06:55:12.325Z,980
2018-07-31T06:55:32.479Z,976
2018-07-31T06:55:52.635Z,980
2018-07-31T06:56:12.809Z,984
2018-07-31T06:56:32.963Z,984
2018-07-31T06:56:53.198Z,988
2018-07-31T06:57:13.364Z,988
2018-07-31T06:57:33.565Z,992
2018-07-31T06:57:53.736Z,996
2018-07-31T06:58:13.885Z,996
2018-07-31T06:58:34.076Z,1000
2018-07-31T06:58:54.272Z,1000
2018-07-31T06:59:14.426Z,1004
2018-07-31T06:59:34.572Z,1008
2018-07-31T06:59:54.752Z,1004
2018-07-31T07:00:14.890Z,1008
2018-07-31T07:00:35.063Z,1008
2018-07-31T07:00:55.274Z,1012
2018-07-31T07:01:15.409Z,1012
2018-07-31T07:01:35.545Z,1012
2018-07-31T07:01:55.698Z,1016
2018-07-31T07:02:15.921Z,1016
2018-07-31T07:02:36.063Z,1012
2018-07-31T07:02:56.220Z,1020
2018-07-31T07:03:16.412Z,1020
2018-07-31T07:03:36.590Z,1024
2018-07-31T07:03:56.766Z,1024
2018-07-31T07:04:16.945Z,1024
2018-07-31T07:04:37.129Z,1024
2018-07-31T07:04:57.327Z,1028
2018-07-31T07:05:17.424Z,1028
2018-07-31T07:05:37.641Z,1032
2018-07-31T07:05:57.781Z,1032
2018-07-31T07:06:17.929Z,1028
2018-07-31T07:06:38.084Z,1032
2018-07-31T07:06:58.273Z,1032
2018-07-31T07:07:18.438Z,1032
2018-07-31T07:07:38.598Z,1036
2018-07-31T07:07:58.780Z,1040
2018-07-31T07:08:18.938Z,1036
2018-07-31T07:08:39.099Z,1040
2018-07-31T07:08:59.256Z,1040
2018-07-31T07:09:19.480Z,1040
2018-07-31T07:09:39.583Z,1040
2018-07-31T07:09:59.722Z,1040
2018-07-31T07:10:19.869Z,1040
2018-07-31T07:10:40.025Z,1044
2018-07-31T07:11:00.198Z,1044
2018-07-31T07:11:20.349Z,1048
2018-07-31T07:11:40.536Z,1044
2018-07-31T07:12:00.652Z,1048
2018-07-31T07:12:20.817Z,1048
2018-07-31T07:12:40.976Z,1048
2018-07-31T07:13:01.141Z,1048
2018-07-31T07:13:21.285Z,1044
2018-07-31T07:13:41.415Z,1052
2018-07-31T07:14:01.586Z,1052
2018-07-31T07:14:21.781Z,1048
2018-07-31T07:14:41.952Z,1048
2018-07-31T07:15:02.134Z,1052
2018-07-31T07:15:22.308Z,1052
2018-07-31T07:15:42.593Z,1052
2018-07-31T07:16:02.779Z,1052
2018-07-31T07:16:22.936Z,1056
2018-07-31T07:16:43.106Z,1056
2018-07-31T07:17:03.271Z,1056
2018-07-31T07:17:23.446Z,1056
2018-07-31T07:17:43.596Z,1056
2018-07-31T07:18:03.831Z,1060
2018-07-31T07:18:24.063Z,1060
2018-07-31T07:18:44.263Z,1056
2018-07-31T07:19:04.448Z,1056
2018-07-31T07:19:24.807Z,1060
2018-07-31T07:19:44.949Z,1060
2018-07-31T07:20:05.120Z,1060
2018-07-31T07:20:25.281Z,1060
2018-07-31T07:20:45.625Z,1060
2018-07-31T07:21:05.819Z,1064
2018-07-31T07:21:25.940Z,1060
2018-07-31T07:21:46.082Z,1064
2018-07-31T07:22:06.207Z,1064
2018-07-31T07:22:26.322Z,1064
2018-07-31T07:22:46.486Z,1064
2018-07-31T07:23:06.633Z,1064
2018-07-31T07:23:26.790Z,1064
2018-07-31T07:23:46.911Z,1068
2018-07-31T07:24:07.081Z,1064
2018-07-31T07:24:27.255Z,1068
2018-07-31T07:24:47.438Z,1064
2018-07-31T07:25:07.583Z,1068
2018-07-31T07:25:27.731Z,1068
2018-07-31T07:25:47.879Z,1064
2018-07-31T07:26:08.075Z,1072
2018-07-31T07:26:28.242Z,1068
2018-07-31T07:26:48.389Z,1068
2018-07-31T07:27:08.529Z,1072
2018-07-31T07:27:28.770Z,1072
2018-07-31T07:27:48.948Z,1072
2018-07-31T07:28:09.227Z,1076
2018-07-31T07:28:29.371Z,1068
2018-07-31T07:28:49.540Z,1072
2018-07-31T07:29:09.673Z,1076
2018-07-31T07:29:29.851Z,1080
2018-07-31T07:29:50.024Z,1076
2018-07-31T07:30:10.200Z,1072
2018-07-31T07:30:30.344Z,1076
2018-07-31T07:30:50.483Z,1072
2018-07-31T07:31:10.629Z,1072
2018-07-31T07:31:30.760Z,1076
2018-07-31T07:31:50.909Z,1076
2018-07-31T07:32:11.084Z,1076
2018-07-31T07:32:31.261Z,1076
2018-07-31T07:32:51.412Z,1076
2018-07-31T07:33:11.594Z,1084
2018-07-31T07:33:31.751Z,1084
2018-07-31T07:33:52.168Z,1084
2018-07-31T07:34:12.575Z,1084
2018-07-31T07:34:32.717Z,1084
2018-07-31T07:34:52.863Z,1088
2018-07-31T07:35:13.031Z,1088
2018-07-31T07:35:33.182Z,1096
2018-07-31T07:35:53.398Z,1088
2018-07-31T07:36:13.550Z,1088
2018-07-31T07:36:33.755Z,1088
2018-07-31T07:36:53.903Z,1092
2018-07-31T07:37:14.037Z,1088
2018-07-31T07:37:34.222Z,1088
2018-07-31T07:37:54.393Z,1088
2018-07-31T07:38:14.583Z,1088
2018-07-31T07:38:34.744Z,1092
2018-07-31T07:38:54.908Z,1092
2018-07-31T07:39:15.062Z,1088
2018-07-31T07:39:35.236Z,1092
2018-07-31T07:39:55.402Z,1092
2018-07-31T07:40:15.620Z,1096
2018-07-31T07:40:35.751Z,1092
2018-07-31T07:40:55.885Z,1096
2018-07-31T07:41:16.085Z,1092
2018-07-31T07:41:36.238Z,1092
2018-07-31T07:41:56.402Z,1096
2018-07-31T07:42:16.563Z,1092
2018-07-31T07:42:36.716Z,1100
2018-07-31T07:42:56.866Z,1096
2018-07-31T07:43:17.025Z,1096
2018-07-31T07:43:37.145Z,1100
2018-07-31T07:43:57.312Z,1100
2018-07-31T07:44:17.448Z,1096
2018-07-31T07:44:37.601Z,1100
2018-07-31T07:44:57.760Z,1100
2018-07-31T07:45:17.923Z,1100
2018-07-31T07:45:38.092Z,1100
2018-07-31T07:45:58.226Z,1096
2018-07-31T07:46:18.358Z,1100
2018-07-31T07:46:38.515Z,1104
2018-07-31T07:46:58.682Z,1100
2018-07-31T07:47:18.840Z,1104
2018-07-31T07:47:38.968Z,1100
2018-07-31T07:47:59.115Z,1096
2018-07-31T07:48:19.277Z,1108
2018-07-31T07:48:39.417Z,1100
2018-07-31T07:48:59.568Z,1100
2018-07-31T07:49:19.736Z,1104
2018-07-31T07:49:39.907Z,1100
2018-07-31T07:50:00.065Z,1104
2018-07-31T07:50:20.214Z,1100
2018-07-31T07:50:40.414Z,1104
2018-07-31T07:51:00.583Z,1108
2018-07-31T07:51:20.777Z,1104
2018-07-31T07:51:40.971Z,1100
2018-07-31T07:52:01.127Z,1104
2018-07-31T07:52:21.309Z,1104
2018-07-31T07:52:41.510Z,1104
2018-07-31T07:53:01.650Z,1104
2018-07-31T07:53:21.798Z,1108
2018-07-31T07:53:41.954Z,1108
2018-07-31T07:54:02.141Z,1104
2018-07-31T07:54:22.395Z,1104
2018-07-31T07:54:42.584Z,1112
2018-07-31T07:55:02.752Z,1108
2018-07-31T07:55:22.942Z,1104
2018-07-31T07:55:43.100Z,1104
2018-07-31T07:56:03.279Z,1100
2018-07-31T07:56:23.417Z,1100
2018-07-31T07:56:43.570Z,1104
2018-07-31T07:57:03.748Z,1116
2018-07-31T07:57:23.899Z,1104
2018-07-31T07:57:44.059Z,1104
2018-07-31T07:58:04.200Z,1112
2018-07-31T07:58:24.387Z,1116
2018-07-31T07:58:44.610Z,1108
2018-07-31T07:59:04.769Z,1108
2018-07-31T07:59:24.961Z,1112
2018-07-31T07:59:45.105Z,1108
2018-07-31T08:00:05.264Z,1108
2018-07-31T08:00:25.425Z,1112
2018-07-31T08:00:45.605Z,1112
2018-07-31T08:01:05.757Z,1116
2018-07-31T08:01:25.944Z,1116
2018-07-31T08:01:46.104Z,1116
2018-07-31T08:02:06.262Z,1116
2018-07-31T08:02:26.416Z,1116
2018-07-31T08:02:46.572Z,1116
2018-07-31T08:03:06.726Z,1104
2018-07-31T08:03:26.935Z,1108
2018-07-31T08:03:47.098Z,1128
2018-07-31T08:04:07.356Z,1116
2018-07-31T08:04:27.402Z,1132
2018-07-31T08:04:47.558Z,1124
2018-07-31T08:05:07.717Z,1124
2018-07-31T08:05:27.855Z,1124
2018-07-31T08:05:48.027Z,1120
2018-07-31T08:06:08.200Z,1128
2018-07-31T08:06:28.332Z,1124
2018-07-31T08:06:48.500Z,1128
2018-07-31T08:07:08.711Z,1124
2018-07-31T08:07:28.882Z,1128
2018-07-31T08:07:49.060Z,1140
2018-07-31T08:08:09.222Z,1132
2018-07-31T08:08:29.421Z,1128
2018-07-31T08:08:49.640Z,1136
2018-07-31T08:09:09.783Z,1128
2018-07-31T08:09:29.935Z,1136
2018-07-31T08:09:50.185Z,1132
2018-07-31T08:10:10.256Z,1136
2018-07-31T08:10:30.413Z,1132
2018-07-31T08:10:50.597Z,1136
2018-07-31T08:11:10.761Z,1140
2018-07-31T08:11:30.952Z,1144
2018-07-31T08:11:51.115Z,1136
2018-07-31T08:12:11.247Z,1144
2018-07-31T08:12:31.469Z,1136
2018-07-31T08:12:51.660Z,1140
2018-07-31T08:13:11.867Z,1140
2018-07-31T08:13:32.042Z,1140
2018-07-31T08:13:52.232Z,1140
2018-07-31T08:14:12.437Z,1144
2018-07-31T08:14:32.598Z,1144
2018-07-31T08:14:52.800Z,1140
2018-07-31T08:15:13.057Z,1144
2018-07-31T08:15:33.278Z,1148
2018-07-31T08:15:53.421Z,1148
2018-07-31T08:16:13.615Z,1148
2018-07-31T08:16:33.783Z,1144
2018-07-31T08:16:53.941Z,1156
2018-07-31T08:17:14.104Z,1152
2018-07-31T08:17:34.282Z,1152
2018-07-31T08:17:54.455Z,1152
2018-07-31T08:18:14.625Z,1152
2018-07-31T08:18:34.776Z,1160
2018-07-31T08:18:54.930Z,1168
2018-07-31T08:19:15.099Z,1160
2018-07-31T08:19:35.261Z,1160
2018-07-31T08:19:55.401Z,1172
2018-07-31T08:20:15.595Z,1160
2018-07-31T08:20:35.732Z,1164
2018-07-31T08:20:55.909Z,1164
2018-07-31T08:21:16.090Z,1164
2018-07-31T08:21:36.243Z,1168
2018-07-31T08:21:56.462Z,1180
2018-07-31T08:22:16.636Z,1168
2018-07-31T08:22:36.931Z,1168
2018-07-31T08:22:57.091Z,1172
2018-07-31T08:23:17.241Z,1168
2018-07-31T08:23:37.405Z,1200
2018-07-31T08:23:57.568Z,1176
2018-07-31T08:24:17.727Z,1172
2018-07-31T08:24:37.871Z,1172
2018-07-31T08:24:58.072Z,1172
2018-07-31T08:25:18.248Z,1176
2018-07-31T08:25:38.412Z,1180
2018-07-31T08:25:58.625Z,1180
2018-07-31T08:26:18.825Z,1180
2018-07-31T08:26:38.977Z,1176
2018-07-31T08:26:59.175Z,1180
2018-07-31T08:27:19.347Z,1180
2018-07-31T08:27:39.545Z,1176
2018-07-31T08:27:59.888Z,1176
2018-07-31T08:28:20.035Z,1180
2018-07-31T08:28:40.225Z,1180
2018-07-31T08:29:00.370Z,1180
2018-07-31T08:29:20.501Z,1180
2018-07-31T08:29:40.675Z,1188
2018-07-31T08:30:00.822Z,1184
2018-07-31T08:30:20.996Z,1176
2018-07-31T08:30:41.136Z,1188
2018-07-31T08:31:01.293Z,1188
2018-07-31T08:31:21.512Z,1200
2018-07-31T08:31:41.687Z,1196
2018-07-31T08:32:01.848Z,1192
2018-07-31T08:32:22.026Z,1212
2018-07-31T08:32:42.178Z,1196
2018-07-31T08:33:02.334Z,1200
2018-07-31T08:33:22.520Z,1196
2018-07-31T08:33:42.688Z,1208
2018-07-31T08:34:02.904Z,1216
2018-07-31T08:34:23.112Z,1212
2018-07-31T08:34:43.332Z,1204
2018-07-31T08:35:03.521Z,1212
2018-07-31T08:35:23.685Z,1236
2018-07-31T08:35:43.837Z,1204
2018-07-31T08:36:03.997Z,1200
2018-07-31T08:36:24.198Z,1220
2018-07-31T08:36:44.341Z,1208
2018-07-31T08:37:04.516Z,1204
2018-07-31T08:37:24.684Z,1228
2018-07-31T08:37:44.854Z,1208
2018-07-31T08:38:05.014Z,1208
2018-07-31T08:38:25.188Z,1212
2018-07-31T08:38:45.361Z,1212
2018-07-31T08:39:05.542Z,1212
2018-07-31T08:39:25.702Z,1212
2018-07-31T08:39:45.869Z,1216
2018-07-31T08:40:06.028Z,1224
2018-07-31T08:40:26.188Z,1240
2018-07-31T08:40:46.351Z,1212
2018-07-31T08:41:06.490Z,1228
2018-07-31T08:41:26.657Z,1216
2018-07-31T08:41:46.855Z,1208
2018-07-31T08:42:07.016Z,1216
2018-07-31T08:42:27.165Z,1216
2018-07-31T08:42:47.304Z,1224
2018-07-31T08:43:07.494Z,1224
2018-07-31T08:43:27.648Z,1224
2018-07-31T08:43:47.819Z,1224
2018-07-31T08:44:08.031Z,1228
2018-07-31T08:44:28.213Z,1228
2018-07-31T08:44:48.380Z,1236
2018-07-31T08:45:08.547Z,1224
2018-07-31T08:45:28.719Z,1232
2018-07-31T08:45:48.936Z,1236
2018-07-31T08:46:09.112Z,1232
2018-07-31T08:46:29.282Z,1240
2018-07-31T08:46:49.452Z,1244
2018-07-31T08:47:09.605Z,1240
2018-07-31T08:47:29.792Z,1232
2018-07-31T08:47:49.924Z,1244
2018-07-31T08:48:10.124Z,1248
2018-07-31T08:48:30.336Z,1248
2018-07-31T08:48:50.528Z,1248
2018-07-31T08:49:10.681Z,1256
2018-07-31T08:49:30.833Z,1248
2018-07-31T08:49:50.992Z,1252
2018-07-31T08:50:11.224Z,1252
2018-07-31T08:50:31.398Z,1256
2018-07-31T08:50:51.588Z,1260
2018-07-31T08:51:11.778Z,1256
2018-07-31T08:51:32.063Z,1256
2018-07-31T08:51:52.240Z,1264
2018-07-31T08:52:12.419Z,1260
2018-07-31T08:52:32.629Z,1268
2018-07-31T08:52:52.808Z,1264
2018-07-31T08:53:13.055Z,1276
2018-07-31T08:53:33.251Z,1268
2018-07-31T08:53:53.425Z,1264
2018-07-31T08:54:13.588Z,1272
2018-07-31T08:54:33.738Z,1268
2018-07-31T08:54:53.917Z,1268
2018-07-31T08:55:14.075Z,1268
2018-07-31T08:55:34.272Z,1272
2018-07-31T08:55:54.472Z,1276
2018-07-31T08:56:14.608Z,1292
2018-07-31T08:56:34.758Z,1276
2018-07-31T08:56:54.997Z,1276
2018-07-31T08:57:15.106Z,1276
2018-07-31T08:57:35.246Z,1272
2018-07-31T08:57:55.423Z,1276
2018-07-31T08:58:15.551Z,1276
2018-07-31T08:58:35.724Z,1284
2018-07-31T08:58:55.907Z,1276
2018-07-31T08:59:16.076Z,1280
2018-07-31T08:59:36.240Z,1288
2018-07-31T08:59:56.382Z,1284
2018-07-31T09:00:16.534Z,1280
2018-07-31T09:00:36.714Z,1292
2018-07-31T09:00:56.886Z,1288
2018-07-31T09:01:17.019Z,1284
2018-07-31T09:01:37.178Z,1284
2018-07-31T09:01:57.369Z,1288
2018-07-31T09:02:17.553Z,1288
2018-07-31T09:02:37.717Z,1296
2018-07-31T09:02:57.945Z,1292
2018-07-31T09:03:18.131Z,1292
2018-07-31T09:03:38.284Z,1288
2018-07-31T09:03:58.500Z,1292
2018-07-31T09:04:18.704Z,1292
2018-07-31T09:04:38.886Z,1300
2018-07-31T09:04:59.034Z,1304
2018-07-31T09:05:19.202Z,1300
2018-07-31T09:05:39.365Z,1300
2018-07-31T09:05:59.557Z,1300
2018-07-31T09:06:19.702Z,1304
2018-07-31T09:06:39.870Z,1300
2018-07-31T09:07:00.028Z,1300
2018-07-31T09:07:20.224Z,1304
2018-07-31T09:07:40.411Z,1304
2018-07-31T09:08:00.547Z,1348
2018-07-31T09:08:20.732Z,1320
2018-07-31T09:08:40.899Z,1316
2018-07-31T09:09:01.500Z,1316
2018-07-31T09:09:21.675Z,1320
2018-07-31T09:09:41.822Z,1312
2018-07-31T09:10:01.969Z,1320
2018-07-31T09:10:22.191Z,1308
2018-07-31T09:10:42.358Z,1312
2018-07-31T09:11:02.570Z,1316
2018-07-31T09:11:22.755Z,1340
2018-07-31T09:11:42.910Z,1320
2018-07-31T09:12:03.061Z,1320
2018-07-31T09:12:23.222Z,1328
2018-07-31T09:12:43.377Z,1324
2018-07-31T09:13:03.552Z,1320
2018-07-31T09:13:23.728Z,1324
2018-07-31T09:13:43.893Z,1324
2018-07-31T09:14:04.074Z,1320
2018-07-31T09:14:24.215Z,1328
2018-07-31T09:14:44.383Z,1324
2018-07-31T09:15:04.537Z,1320
2018-07-31T09:15:24.705Z,1328
2018-07-31T09:15:44.852Z,1328
2018-07-31T09:16:05.038Z,1328
2018-07-31T09:16:25.184Z,1332
2018-07-31T09:16:45.354Z,1328
2018-07-31T09:17:05.510Z,1332
2018-07-31T09:17:25.700Z,1332
2018-07-31T09:17:45.871Z,1336
2018-07-31T09:18:06.028Z,1340
2018-07-31T09:18:26.211Z,1336
2018-07-31T09:18:46.370Z,1348
2018-07-31T09:19:06.509Z,1336
2018-07-31T09:19:26.668Z,1340
2018-07-31T09:19:46.847Z,1340
2018-07-31T09:20:06.992Z,1348
2018-07-31T09:20:27.149Z,1340
2018-07-31T09:20:47.301Z,1344
2018-07-31T09:21:07.467Z,1340
2018-07-31T09:21:27.649Z,1356
2018-07-31T09:21:47.822Z,1356
2018-07-31T09:22:07.996Z,1348
2018-07-31T09:22:28.160Z,1348
2018-07-31T09:22:48.306Z,1348
2018-07-31T09:23:08.466Z,1348
2018-07-31T09:23:28.621Z,1352
2018-07-31T09:23:48.769Z,1348
2018-07-31T09:24:08.902Z,1344
2018-07-31T09:24:29.129Z,1368
2018-07-31T09:24:49.445Z,1352
2018-07-31T09:25:09.575Z,1352
2018-07-31T09:25:29.712Z,1360
2018-07-31T09:25:49.863Z,1356
2018-07-31T09:26:10.026Z,1352
2018-07-31T09:26:30.223Z,1352
2018-07-31T09:26:50.395Z,1356
2018-07-31T09:27:10.555Z,1356
2018-07-31T09:27:30.714Z,1364
2018-07-31T09:27:50.867Z,1352
2018-07-31T09:28:11.036Z,1364
2018-07-31T09:28:31.187Z,1352
2018-07-31T09:28:51.355Z,1360
2018-07-31T09:29:11.497Z,1364
2018-07-31T09:29:31.689Z,1356
2018-07-31T09:29:51.831Z,1360
2018-07-31T09:30:11.989Z,1360
2018-07-31T09:30:32.235Z,1356
2018-07-31T09:30:52.482Z,1356
2018-07-31T09:31:12.528Z,1360
2018-07-31T09:31:32.694Z,1364
2018-07-31T09:31:52.847Z,1372
2018-07-31T09:32:13.011Z,1368
2018-07-31T09:32:33.152Z,1368
2018-07-31T09:32:53.320Z,1376
2018-07-31T09:33:13.490Z,1376
2018-07-31T09:33:33.655Z,1368
2018-07-31T09:33:53.812Z,1384
2018-07-31T09:34:13.970Z,1380
2018-07-31T09:34:34.124Z,1372
2018-07-31T09:34:54.310Z,1376
2018-07-31T09:35:14.539Z,1372
2018-07-31T09:35:34.747Z,1372
2018-07-31T09:35:54.942Z,1368
2018-07-31T09:36:15.113Z,1388
2018-07-31T09:36:35.323Z,1372
2018-07-31T09:36:55.420Z,1400
2018-07-31T09:37:15.579Z,1404
2018-07-31T09:37:35.731Z,1376
2018-07-31T09:37:55.905Z,1376
2018-07-31T09:38:16.047Z,1384
2018-07-31T09:38:36.223Z,1376
2018-07-31T09:38:56.366Z,1380
2018-07-31T09:39:16.516Z,1376
2018-07-31T09:39:36.689Z,1380
2018-07-31T09:39:56.829Z,1380
2018-07-31T09:40:16.983Z,1388
2018-07-31T09:40:37.111Z,1388
2018-07-31T09:40:57.304Z,1388
2018-07-31T09:41:17.438Z,1388
2018-07-31T09:41:37.570Z,1392
2018-07-31T09:41:57.741Z,1388
2018-07-31T09:42:17.913Z,1388
2018-07-31T09:42:38.091Z,1392
2018-07-31T09:42:58.216Z,1392
2018-07-31T09:43:18.373Z,1408
2018-07-31T09:43:38.560Z,1392
2018-07-31T09:43:58.729Z,1400
2018-07-31T09:44:18.908Z,1396
2018-07-31T09:44:39.048Z,1404
2018-07-31T09:44:59.207Z,1400
2018-07-31T09:45:19.358Z,1396
2018-07-31T09:45:39.525Z,1396
2018-07-31T09:45:59.687Z,1392
2018-07-31T09:46:19.844Z,1400
2018-07-31T09:46:40.020Z,1400
2018-07-31T09:47:00.160Z,1396
2018-07-31T09:47:20.335Z,1400
2018-07-31T09:47:40.505Z,1400
2018-07-31T09:48:00.688Z,1400
2018-07-31T09:48:20.842Z,1400
2018-07-31T09:48:41.018Z,1396
2018-07-31T09:49:01.175Z,1404
2018-07-31T09:49:21.348Z,1436
2018-07-31T09:49:41.496Z,1388
2018-07-31T09:50:01.672Z,1396
2018-07-31T09:50:21.823Z,1404
2018-07-31T09:50:42.048Z,1400
2018-07-31T09:51:02.272Z,1396
2018-07-31T09:51:22.487Z,1400
2018-07-31T09:51:42.648Z,1408
2018-07-31T09:52:02.785Z,1416
2018-07-31T09:52:22.946Z,1416
2018-07-31T09:52:43.119Z,1412
2018-07-31T09:53:03.225Z,1408
2018-07-31T09:53:23.378Z,1408
2018-07-31T09:53:43.561Z,1408
2018-07-31T09:54:03.723Z,1412
2018-07-31T09:54:23.902Z,1412
2018-07-31T09:54:44.124Z,1412
2018-07-31T09:55:04.332Z,1412
2018-07-31T09:55:24.495Z,1408
2018-07-31T09:55:44.677Z,1416
2018-07-31T09:56:04.839Z,1416
2018-07-31T09:56:24.994Z,1412
2018-07-31T09:56:45.149Z,1424
2018-07-31T09:57:05.348Z,1420
2018-07-31T09:57:25.537Z,1420
2018-07-31T09:57:45.671Z,1428
2018-07-31T09:58:05.829Z,1412
2018-07-31T09:58:26.012Z,1420
2018-07-31T09:58:46.196Z,1428
2018-07-31T09:59:06.401Z,1420
2018-07-31T09:59:26.698Z,1424
2018-07-31T09:59:46.883Z,1416
2018-07-31T10:00:07.019Z,1432
2018-07-31T10:00:27.146Z,1432
2018-07-31T10:00:47.292Z,1436
2018-07-31T10:01:07.457Z,1424
2018-07-31T10:01:27.599Z,1460
2018-07-31T10:01:47.736Z,1424
2018-07-31T10:02:07.894Z,1420
2018-07-31T10:02:28.067Z,1420
2018-07-31T10:02:48.311Z,1432
2018-07-31T10:03:08.505Z,1436
2018-07-31T10:03:28.671Z,1428
2018-07-31T10:03:48.823Z,1416
2018-07-31T10:04:08.966Z,1420
2018-07-31T10:04:29.139Z,1404
2018-07-31T10:04:49.304Z,1416
2018-07-31T10:05:09.718Z,1420
2018-07-31T10:05:29.719Z,1424
2018-07-31T10:05:49.862Z,1424
2018-07-31T10:06:10.032Z,1424
2018-07-31T10:06:30.217Z,1428
2018-07-31T10:06:50.388Z,1408
2018-07-31T10:07:10.575Z,1420
2018-07-31T10:07:30.734Z,1420
2018-07-31T10:07:50.971Z,1420
2018-07-31T10:08:11.160Z,1432
2018-07-31T10:08:31.340Z,1432
2018-07-31T10:08:51.480Z,1436
2018-07-31T10:09:11.636Z,1428
2018-07-31T10:09:31.794Z,1428
2018-07-31T10:09:51.978Z,1432
2018-07-31T10:10:12.126Z,1428
2018-07-31T10:10:32.302Z,1428
2018-07-31T10:10:52.487Z,1428
2018-07-31T10:11:12.647Z,1432
2018-07-31T10:11:32.826Z,1428
2018-07-31T10:11:53.049Z,1432
2018-07-31T10:12:13.371Z,1436
2018-07-31T10:12:33.501Z,1452
2018-07-31T10:12:53.698Z,1444
2018-07-31T10:13:13.907Z,1440
2018-07-31T10:13:34.069Z,1448
2018-07-31T10:13:54.232Z,1460
2018-07-31T10:14:14.405Z,1464
2018-07-31T10:14:34.551Z,1448
2018-07-31T10:14:54.727Z,1444
2018-07-31T10:15:14.925Z,1444
2018-07-31T10:15:35.130Z,1440
2018-07-31T10:15:55.318Z,1436
2018-07-31T10:16:15.480Z,1436
2018-07-31T10:16:35.639Z,1436
2018-07-31T10:16:55.839Z,1436
2018-07-31T10:17:16.032Z,1436
2018-07-31T10:17:36.259Z,1440
2018-07-31T10:17:56.397Z,1444